Time;durP1;ratioP1;P1;durP2;ratioP2;P2;SDS_P1;SDS_P2;PMS_P1;PMS_P2;Temp;Humidity;BMP_temperature;BMP_pressure;BME280_temperature;BME280_humidity;BME280_pressure;Samples;Min_cycle;Max_cycle;Signal;HPM_P1;HPM_P2
2023/12/23 00:00:13;;;;;;;22.20;2.78;;;6.20;99.90;;;;;;6301739;22;20064;-84
2023/12/23 00:02:38;;;;;;;13.77;2.63;;;6.20;99.90;;;;;;6301810;22;20073;-84
2023/12/23 00:05:04;;;;;;;13.73;3.42;;;6.30;99.90;;;;;;6302009;22;20015;-84
2023/12/23 00:07:30;;;;;;;11.98;2.22;;;6.20;99.90;;;;;;6302138;22;20011;-84
2023/12/23 00:09:55;;;;;;;10.40;2.55;;;6.40;99.90;;;;;;6301995;22;20353;-84
2023/12/23 00:12:21;;;;;;;12.52;2.58;;;6.40;99.90;;;;;;6303852;22;20015;-85
2023/12/23 00:14:47;;;;;;;9.43;2.22;;;6.30;99.90;;;;;;6301550;22;20026;-84
2023/12/23 00:17:12;;;;;;;14.43;3.83;;;6.40;99.90;;;;;;6301740;22;20071;-84
2023/12/23 00:19:38;;;;;;;20.42;3.35;;;6.30;99.90;;;;;;6303906;22;20518;-85
2023/12/23 00:22:04;;;;;;;13.63;2.47;;;6.40;99.90;;;;;;6301452;22;20068;-85
2023/12/23 00:24:31;;;;;;;14.98;2.58;;;6.30;99.90;;;;;;6300667;22;20022;-85
2023/12/23 00:26:57;;;;;;;12.25;2.50;;;6.40;99.90;;;;;;6301288;22;20072;-84
2023/12/23 00:29:26;;;;;;;11.00;1.92;;;6.40;99.90;;;;;;6301765;22;20442;-84
2023/12/23 00:31:52;;;;;;;17.30;2.90;;;6.30;99.90;;;;;;6303378;22;20082;-84
2023/12/23 00:34:18;;;;;;;14.20;2.45;;;6.30;99.90;;;;;;6301388;22;20023;-84
2023/12/23 00:36:44;;;;;;;14.68;2.80;;;6.30;99.90;;;;;;6301407;22;20019;-83
2023/12/23 00:39:10;;;;;;;13.30;2.40;;;6.40;99.90;;;;;;6303221;22;20082;-83
2023/12/23 00:41:37;;;;;;;13.82;3.22;;;6.30;99.90;;;;;;6303715;22;20027;-84
2023/12/23 00:44:03;;;;;;;11.10;2.42;;;6.30;99.90;;;;;;6300940;22;20019;-84
2023/12/23 00:46:29;;;;;;;15.05;3.33;;;6.40;99.90;;;;;;6301730;22;20022;-85
2023/12/23 00:48:55;;;;;;;11.52;2.95;;;6.40;99.90;;;;;;6303634;22;20007;-84
2023/12/23 00:51:21;;;;;;;16.95;2.60;;;6.40;99.90;;;;;;6303601;22;20015;-84
2023/12/23 00:53:47;;;;;;;12.60;2.85;;;6.40;99.90;;;;;;6301487;22;20023;-84
2023/12/23 00:56:19;;;;;;;11.45;2.33;;;6.50;99.90;;;;;;6275568;22;20024;-84
2023/12/23 00:58:45;;;;;;;13.18;2.75;;;6.40;99.90;;;;;;6303039;22;20018;-84
2023/12/23 01:01:10;;;;;;;12.48;3.50;;;6.50;99.90;;;;;;6301342;22;20090;-85
2023/12/23 01:03:36;;;;;;;16.38;2.92;;;6.50;99.90;;;;;;6301339;22;20395;-84
2023/12/23 01:06:02;;;;;;;12.88;2.80;;;6.50;99.90;;;;;;6303459;22;20060;-84
2023/12/23 01:08:28;;;;;;;18.67;3.50;;;6.50;99.90;;;;;;6301440;22;20129;-84
2023/12/23 01:10:54;;;;;;;10.38;2.42;;;6.50;99.90;;;;;;6301545;22;20433;-85
2023/12/23 01:13:20;;;;;;;12.40;2.58;;;6.60;99.90;;;;;;6301250;22;20170;-84
2023/12/23 01:15:45;;;;;;;21.67;3.13;;;6.50;99.90;;;;;;6275605;22;20047;-83
2023/12/23 01:18:11;;;;;;;14.07;3.65;;;6.60;99.90;;;;;;6301525;22;20398;-83
2023/12/23 01:20:38;;;;;;;8.30;2.08;;;6.50;99.90;;;;;;6301699;22;20019;-84
2023/12/23 01:23:04;;;;;;;16.27;2.60;;;6.60;99.90;;;;;;6301865;22;20019;-83
2023/12/23 01:25:30;;;;;;;13.55;2.53;;;6.60;99.90;;;;;;6302169;22;20309;-84
2023/12/23 01:28:00;;;;;;;18.13;2.72;;;6.60;99.90;;;;;;6301582;22;20015;-84
2023/12/23 01:30:26;;;;;;;11.18;2.45;;;6.60;99.90;;;;;;6301733;22;20455;-83
2023/12/23 01:32:51;;;;;;;11.75;2.42;;;6.70;99.90;;;;;;6301644;22;20019;-84
2023/12/23 01:35:17;;;;;;;9.90;2.25;;;6.60;99.90;;;;;;6301499;22;20019;-83
2023/12/23 01:37:43;;;;;;;13.18;1.92;;;6.60;99.90;;;;;;6303349;22;20150;-84
2023/12/23 01:40:09;;;;;;;11.60;2.35;;;6.60;99.90;;;;;;6301054;22;20019;-84
2023/12/23 01:42:37;;;;;;;16.27;2.65;;;6.60;99.90;;;;;;6302824;22;20019;-84
2023/12/23 01:45:03;;;;;;;10.45;2.38;;;6.60;99.90;;;;;;6302947;22;20015;-84
2023/12/23 01:47:29;;;;;;;15.38;4.30;;;6.60;99.90;;;;;;6303766;22;20062;-84
2023/12/23 01:49:56;;;;;;;12.25;2.50;;;6.60;99.90;;;;;;6303034;22;20465;-84
2023/12/23 01:52:23;;;;;;;10.30;1.75;;;6.60;99.90;;;;;;6304980;22;20023;-84
2023/12/23 01:54:49;;;;;;;13.52;2.42;;;6.70;99.90;;;;;;6303306;22;20396;-83
2023/12/23 01:57:15;;;;;;;9.27;2.00;;;6.70;99.90;;;;;;6304777;22;20090;-83
2023/12/23 01:59:41;;;;;;;12.68;2.47;;;6.60;99.90;;;;;;6303062;22;20339;-83
2023/12/23 02:02:07;;;;;;;14.05;2.50;;;6.60;99.90;;;;;;6304843;22;20011;-83
2023/12/23 02:04:34;;;;;;;12.73;2.53;;;6.60;99.90;;;;;;6303067;22;20086;-83
2023/12/23 02:06:59;;;;;;;11.82;2.83;;;6.60;99.90;;;;;;6302940;22;20145;-84
2023/12/23 02:09:25;;;;;;;8.35;2.20;;;6.70;99.90;;;;;;6302952;22;20336;-83
2023/12/23 02:11:59;;;;;;;16.00;2.70;;;6.70;99.90;;;;;;6276947;22;20047;-83
2023/12/23 02:14:45;;;;;;;9.98;2.45;;;6.70;99.90;;;;;;6302891;22;20347;-83
2023/12/23 02:17:12;;;;;;;10.18;2.42;;;6.70;99.90;;;;;;6302841;22;20007;-84
2023/12/23 02:19:37;;;;;;;13.52;2.28;;;6.70;99.90;;;;;;6302755;22;20068;-83
2023/12/23 02:22:03;;;;;;;11.15;3.03;;;6.70;99.90;;;;;;6302693;22;20015;-84
2023/12/23 02:24:29;;;;;;;13.35;2.08;;;6.70;99.90;;;;;;6302542;22;20025;-83
2023/12/23 02:27:01;;;;;;;7.20;1.92;;;6.60;99.90;;;;;;6304361;22;20055;-83
2023/12/23 02:29:28;;;;;;;7.43;2.10;;;6.60;99.90;;;;;;6302892;22;20023;-84
2023/12/23 02:31:55;;;;;;;7.75;1.95;;;6.60;99.90;;;;;;6302927;22;20015;-84
2023/12/23 02:34:21;;;;;;;10.25;1.92;;;6.60;99.90;;;;;;6302699;22;20190;-83
2023/12/23 02:36:47;;;;;;;13.65;2.47;;;6.70;99.90;;;;;;6302730;22;20569;-83
2023/12/23 02:39:12;;;;;;;11.63;1.95;;;6.70;99.90;;;;;;6302083;22;20054;-83
2023/12/23 02:41:38;;;;;;;15.80;2.10;;;6.70;99.90;;;;;;6304046;22;20016;-82
2023/12/23 02:44:04;;;;;;;9.80;2.00;;;6.70;99.90;;;;;;6303289;22;20019;-83
2023/12/23 02:46:29;;;;;;;11.15;2.35;;;6.70;99.90;;;;;;6304386;22;20348;-83
2023/12/23 02:48:55;;;;;;;6.97;2.10;;;6.70;99.90;;;;;;6302653;22;20219;-82
2023/12/23 02:51:21;;;;;;;10.00;1.85;;;6.70;99.90;;;;;;6304342;22;20081;-84
2023/12/23 02:53:46;;;;;;;11.25;1.98;;;6.60;99.90;;;;;;6304123;22;20061;-82
2023/12/23 02:56:12;;;;;;;12.07;2.53;;;6.70;99.90;;;;;;6303995;22;20451;-82
2023/12/23 02:58:38;;;;;;;10.32;2.65;;;6.70;99.90;;;;;;6302121;22;20096;-83
2023/12/23 03:01:07;;;;;;;8.25;2.38;;;6.80;99.90;;;;;;6304390;22;20022;-83
2023/12/23 03:03:33;;;;;;;9.82;2.53;;;6.70;99.90;;;;;;6304009;22;20449;-84
2023/12/23 03:06:00;;;;;;;10.40;2.45;;;6.70;99.90;;;;;;6304101;22;20016;-84
2023/12/23 03:08:25;;;;;;;7.13;2.03;;;6.70;99.90;;;;;;6302009;22;20352;-84
2023/12/23 03:10:51;;;;;;;9.10;1.75;;;6.70;99.90;;;;;;6302173;22;20018;-84
2023/12/23 03:13:17;;;;;;;7.30;1.70;;;6.70;99.90;;;;;;6302312;22;20027;-84
2023/12/23 03:15:43;;;;;;;7.50;1.60;;;6.70;99.90;;;;;;6302435;22;20077;-84
2023/12/23 03:18:08;;;;;;;7.03;1.63;;;6.60;99.90;;;;;;6304147;22;20041;-84
2023/12/23 03:20:34;;;;;;;6.35;1.77;;;6.60;99.90;;;;;;6302515;22;20422;-85
2023/12/23 03:22:59;;;;;;;17.80;2.33;;;6.60;99.90;;;;;;6302021;22;20016;-84
2023/12/23 03:25:25;;;;;;;5.88;1.73;;;6.60;99.90;;;;;;6302505;22;20027;-85
2023/12/23 03:27:51;;;;;;;8.20;1.80;;;6.60;99.90;;;;;;6301301;22;20669;-79
2023/12/23 03:30:17;;;;;;;8.15;1.45;;;6.50;99.90;;;;;;6299434;22;20088;-79
2023/12/23 03:32:42;;;;;;;8.88;1.65;;;6.60;99.90;;;;;;6302167;22;20058;-78
2023/12/23 03:35:09;;;;;;;8.02;1.45;;;6.60;99.90;;;;;;6273752;22;20727;-79
2023/12/23 03:37:34;;;;;;;3.47;1.35;;;6.60;99.90;;;;;;6300087;22;20092;-79
2023/12/23 03:40:00;;;;;;;6.03;1.38;;;6.60;99.90;;;;;;6301756;22;20039;-80
2023/12/23 03:42:26;;;;;;;3.20;1.40;;;6.60;99.90;;;;;;6301852;22;20019;-80
2023/12/23 03:44:51;;;;;;;4.57;1.55;;;6.60;99.90;;;;;;6300045;22;20439;-80
2023/12/23 03:47:17;;;;;;;6.28;2.03;;;6.60;99.90;;;;;;6302012;22;20026;-79
2023/12/23 03:49:43;;;;;;;8.98;1.80;;;6.60;99.90;;;;;;6302224;22;20087;-78
2023/12/23 03:52:09;;;;;;;7.50;1.48;;;6.60;99.90;;;;;;6300080;22;20025;-76
2023/12/23 03:54:35;;;;;;;5.50;1.20;;;6.60;99.90;;;;;;6301966;22;20439;-76
2023/12/23 03:57:00;;;;;;;4.18;1.52;;;6.60;99.90;;;;;;6301918;22;20012;-76
2023/12/23 03:59:26;;;;;;;5.72;1.75;;;6.60;99.90;;;;;;6301810;22;20021;-76
2023/12/23 04:01:52;;;;;;;4.30;1.58;;;6.60;99.90;;;;;;6300461;22;20026;-75
2023/12/23 04:04:18;;;;;;;5.38;1.60;;;6.60;99.90;;;;;;6301948;22;20011;-76
2023/12/23 04:06:43;;;;;;;6.47;1.55;;;6.50;99.90;;;;;;6301129;22;20029;-76
2023/12/23 04:09:10;;;;;;;11.07;2.00;;;6.60;99.90;;;;;;6301700;22;20019;-76
2023/12/23 04:11:36;;;;;;;5.68;1.50;;;6.60;99.90;;;;;;6302138;22;20003;-74
2023/12/23 04:14:02;;;;;;;6.68;1.63;;;6.50;99.90;;;;;;6299789;22;20034;-75
2023/12/23 04:16:28;;;;;;;8.10;1.83;;;6.60;99.90;;;;;;6301801;22;20089;-74
2023/12/23 04:18:54;;;;;;;7.22;1.30;;;6.60;99.90;;;;;;6299977;22;20043;-75
2023/12/23 04:21:19;;;;;;;6.55;1.52;;;6.60;99.90;;;;;;6301389;22;20023;-74
2023/12/23 04:23:45;;;;;;;7.25;1.58;;;6.60;99.90;;;;;;6301679;22;20019;-75
2023/12/23 04:26:14;;;;;;;3.65;1.50;;;6.60;99.90;;;;;;6301749;22;20061;-74
2023/12/23 04:28:39;;;;;;;3.60;1.52;;;6.60;99.90;;;;;;6302079;22;20012;-74
2023/12/23 04:31:06;;;;;;;3.20;1.35;;;6.50;99.90;;;;;;6301655;22;20103;-75
2023/12/23 04:33:34;;;;;;;3.78;1.80;;;6.60;99.90;;;;;;6301804;22;20023;-75
2023/12/23 04:36:00;;;;;;;4.40;1.50;;;6.60;99.90;;;;;;6301415;22;20011;-74
2023/12/23 04:38:26;;;;;;;4.03;1.20;;;6.60;99.90;;;;;;6301506;22;20011;-74
2023/12/23 04:40:51;;;;;;;4.85;1.50;;;6.60;99.90;;;;;;6299066;22;20398;-73
2023/12/23 04:43:17;;;;;;;2.42;1.75;;;6.60;99.90;;;;;;6301011;22;20064;-74
2023/12/23 04:45:43;;;;;;;3.50;1.15;;;6.70;99.90;;;;;;6299311;22;20027;-73
2023/12/23 04:48:08;;;;;;;2.70;1.40;;;6.70;99.90;;;;;;6301293;22;20085;-73
2023/12/23 04:50:34;;;;;;;2.10;1.63;;;6.60;99.90;;;;;;6299176;22;20022;-73
2023/12/23 04:53:00;;;;;;;3.85;1.70;;;6.60;99.90;;;;;;6299318;22;20076;-73
2023/12/23 04:55:26;;;;;;;5.53;1.67;;;6.60;99.90;;;;;;6301091;22;20387;-72
2023/12/23 04:57:51;;;;;;;2.67;1.13;;;6.70;99.90;;;;;;6299374;22;20022;-73
2023/12/23 05:00:18;;;;;;;1.88;1.50;;;6.70;99.90;;;;;;6299457;22;20015;-73
2023/12/23 05:02:43;;;;;;;3.03;1.58;;;6.60;99.90;;;;;;6299931;22;20011;-74
2023/12/23 05:05:09;;;;;;;3.30;1.42;;;6.60;99.90;;;;;;6301400;22;20012;-73
2023/12/23 05:07:35;;;;;;;6.03;1.88;;;6.60;99.90;;;;;;6299668;22;20435;-73
2023/12/23 05:10:00;;;;;;;2.78;2.05;;;6.60;99.90;;;;;;6299633;22;20030;-73
2023/12/23 05:12:26;;;;;;;1.40;1.00;;;6.50;99.90;;;;;;6301202;22;20057;-73
2023/12/23 05:14:52;;;;;;;2.00;1.13;;;6.50;99.90;;;;;;6301326;22;20106;-73
2023/12/23 05:17:17;;;;;;;1.45;1.15;;;6.60;99.90;;;;;;6273578;22;20026;-74
2023/12/23 05:19:43;;;;;;;1.80;1.20;;;6.50;99.90;;;;;;6302595;22;20430;-73
2023/12/23 05:22:09;;;;;;;1.25;1.10;;;6.50;99.90;;;;;;6302953;22;20026;-73
2023/12/23 05:24:38;;;;;;;1.15;1.08;;;6.60;99.90;;;;;;6301342;22;20026;-74
2023/12/23 05:27:04;;;;;;;1.42;1.08;;;6.50;99.90;;;;;;6301668;22;20026;-73
2023/12/23 05:29:31;;;;;;;0.98;0.98;;;6.60;99.90;;;;;;6301338;22;20037;-74
2023/12/23 05:31:56;;;;;;;2.25;1.15;;;6.60;99.90;;;;;;6303148;22;20021;-74
2023/12/23 05:34:22;;;;;;;1.30;1.20;;;6.50;99.90;;;;;;6303112;22;20090;-74
2023/12/23 05:36:48;;;;;;;1.30;1.20;;;6.50;99.90;;;;;;6303574;22;20019;-74
2023/12/23 05:39:14;;;;;;;1.35;1.33;;;6.50;99.90;;;;;;6303633;22;20041;-74
2023/12/23 05:41:40;;;;;;;1.25;1.15;;;6.60;99.90;;;;;;6300827;22;20403;-73
2023/12/23 05:44:07;;;;;;;1.30;1.30;;;6.60;99.90;;;;;;6303018;22;20015;-73
2023/12/23 05:46:33;;;;;;;1.08;1.05;;;6.60;99.90;;;;;;6300958;22;20447;-73
2023/12/23 05:48:59;;;;;;;1.10;1.10;;;6.70;99.90;;;;;;6300874;22;20019;-73
2023/12/23 05:51:24;;;;;;;1.45;1.35;;;6.80;99.90;;;;;;6302872;22;20011;-73
2023/12/23 05:53:50;;;;;;;1.70;1.20;;;6.80;99.90;;;;;;6302975;22;20017;-74
2023/12/23 05:56:16;;;;;;;3.15;1.50;;;6.90;99.90;;;;;;6302993;22;20077;-74
2023/12/23 05:58:41;;;;;;;9.57;2.10;;;7.10;99.90;;;;;;6300923;22;20019;-74
2023/12/23 06:01:08;;;;;;;6.10;2.10;;;7.40;99.90;;;;;;6300700;22;20108;-74
2023/12/23 06:03:34;;;;;;;5.70;2.40;;;7.40;99.90;;;;;;6300351;22;20030;-74
2023/12/23 06:06:01;;;;;;;6.00;2.05;;;7.60;99.90;;;;;;6300895;22;20057;-74
2023/12/23 06:08:26;;;;;;;5.70;2.95;;;7.70;99.90;;;;;;6300677;22;20019;-75
2023/12/23 06:10:52;;;;;;;6.97;2.15;;;7.90;99.90;;;;;;6300935;22;20077;-75
2023/12/23 06:13:18;;;;;;;5.88;2.45;;;7.90;99.90;;;;;;6300904;22;20030;-75
2023/12/23 06:15:43;;;;;;;10.77;2.30;;;8.00;99.90;;;;;;6302950;22;20071;-75
2023/12/23 06:18:10;;;;;;;13.80;2.97;;;8.00;99.90;;;;;;6301006;22;20099;-75
2023/12/23 06:20:35;;;;;;;13.90;2.67;;;8.10;99.90;;;;;;6301153;22;20094;-75
2023/12/23 06:23:01;;;;;;;11.50;2.78;;;8.20;99.90;;;;;;6302872;22;20090;-75
2023/12/23 06:25:27;;;;;;;10.50;3.25;;;8.20;99.90;;;;;;6301200;22;20329;-75
2023/12/23 06:27:52;;;;;;;12.32;2.65;;;8.20;99.90;;;;;;6302993;22;20019;-75
2023/12/23 06:30:18;;;;;;;7.63;2.38;;;8.20;99.90;;;;;;6302551;22;20015;-75
2023/12/23 06:32:44;;;;;;;12.48;2.72;;;8.30;99.90;;;;;;6300944;22;20114;-75
2023/12/23 06:35:09;;;;;;;11.65;2.80;;;8.30;99.90;;;;;;6300967;22;20019;-75
2023/12/23 06:37:35;;;;;;;10.43;2.50;;;8.30;99.90;;;;;;6301108;22;20074;-75
2023/12/23 06:40:01;;;;;;;12.15;3.33;;;8.30;99.90;;;;;;6300525;22;20086;-75
2023/12/23 06:42:26;;;;;;;11.48;2.70;;;8.40;99.90;;;;;;6302145;22;20034;-75
2023/12/23 06:44:52;;;;;;;18.85;3.40;;;8.30;99.90;;;;;;6302454;22;20019;-76
2023/12/23 06:47:18;;;;;;;15.02;3.00;;;8.40;99.90;;;;;;6302112;22;20057;-76
2023/12/23 06:49:43;;;;;;;10.38;2.78;;;8.50;99.90;;;;;;6302184;22;20713;-75
2023/12/23 06:52:09;;;;;;;12.90;3.53;;;8.50;99.90;;;;;;6302648;22;20053;-74
2023/12/23 06:54:35;;;;;;;12.13;3.22;;;8.50;99.90;;;;;;6302450;22;20383;-74
2023/12/23 06:57:00;;;;;;;12.98;2.97;;;8.50;99.90;;;;;;6300332;22;20041;-74
2023/12/23 06:59:26;;;;;;;10.88;2.90;;;8.60;99.90;;;;;;6301029;22;20099;-74
2023/12/23 07:01:52;;;;;;;13.68;3.10;;;8.60;99.90;;;;;;6300796;22;20019;-73
2023/12/23 07:04:17;;;;;;;14.07;2.90;;;8.60;99.90;;;;;;6301316;22;20034;-75
2023/12/23 07:06:43;;;;;;;9.50;2.90;;;8.70;99.90;;;;;;6302841;22;20025;-75
2023/12/23 07:09:09;;;;;;;10.52;2.65;;;8.70;99.90;;;;;;6302762;22;20011;-75
2023/12/23 07:11:35;;;;;;;10.45;3.03;;;8.70;99.90;;;;;;6302924;22;20019;-75
2023/12/23 07:14:01;;;;;;;13.45;3.53;;;8.70;99.90;;;;;;6303170;22;20066;-75
2023/12/23 07:16:27;;;;;;;15.20;3.17;;;8.70;99.90;;;;;;6302520;22;20447;-75
2023/12/23 07:18:52;;;;;;;16.23;3.58;;;8.70;99.90;;;;;;6301032;22;20105;-75
2023/12/23 07:21:18;;;;;;;15.77;3.03;;;8.70;99.90;;;;;;6300806;22;20023;-75
2023/12/23 07:23:44;;;;;;;14.98;3.53;;;8.80;99.90;;;;;;6300667;22;20569;-76
2023/12/23 07:26:14;;;;;;;18.75;4.72;;;8.80;99.90;;;;;;6300761;22;20022;-75
2023/12/23 07:28:40;;;;;;;11.68;3.08;;;8.80;99.90;;;;;;6302299;22;20022;-76
2023/12/23 07:31:06;;;;;;;13.68;2.92;;;8.80;99.90;;;;;;6300527;22;20023;-75
2023/12/23 07:33:32;;;;;;;15.52;3.45;;;8.80;99.90;;;;;;6300450;22;20022;-75
2023/12/23 07:35:58;;;;;;;10.38;3.10;;;8.80;99.90;;;;;;6274437;22;20023;-75
2023/12/23 07:38:23;;;;;;;9.75;3.20;;;8.80;99.90;;;;;;6299984;22;20059;-75
2023/12/23 07:40:49;;;;;;;15.77;3.72;;;8.90;99.90;;;;;;6301109;22;20464;-74
2023/12/23 07:43:15;;;;;;;14.82;3.33;;;8.90;99.90;;;;;;6301420;22;20270;-73
2023/12/23 07:45:42;;;;;;;20.40;3.67;;;8.90;99.90;;;;;;6300942;22;20345;-72
2023/12/23 07:48:08;;;;;;;17.98;3.38;;;8.90;99.90;;;;;;6301253;22;20059;-73
2023/12/23 07:50:34;;;;;;;16.25;3.85;;;8.90;99.90;;;;;;6302390;22;20019;-73
2023/12/23 07:52:59;;;;;;;11.52;3.30;;;8.90;99.90;;;;;;6303378;22;20438;-73
2023/12/23 07:55:26;;;;;;;16.10;3.20;;;8.90;99.90;;;;;;6301309;22;20292;-73
2023/12/23 07:57:52;;;;;;;17.35;3.50;;;8.90;99.90;;;;;;6300240;22;20019;-73
2023/12/23 08:00:18;;;;;;;15.20;2.95;;;8.90;99.90;;;;;;6301381;22;20258;-73
2023/12/23 08:02:44;;;;;;;17.83;3.22;;;9.00;99.90;;;;;;6301361;22;20015;-73
2023/12/23 08:05:10;;;;;;;19.70;3.50;;;9.00;99.90;;;;;;6299542;22;20011;-73
2023/12/23 08:07:36;;;;;;;15.10;4.13;;;9.00;99.90;;;;;;6299413;22;20355;-73
2023/12/23 08:10:04;;;;;;;17.55;3.38;;;9.00;99.90;;;;;;6301401;22;20019;-72
2023/12/23 08:12:30;;;;;;;17.98;4.35;;;9.00;99.90;;;;;;6300961;22;20027;-73
2023/12/23 08:14:55;;;;;;;19.38;4.32;;;9.00;99.90;;;;;;6301204;22;20015;-73
2023/12/23 08:17:21;;;;;;;8.50;2.45;;;9.10;99.90;;;;;;6301324;22;20007;-73
2023/12/23 08:19:47;;;;;;;17.63;3.65;;;9.00;99.90;;;;;;6299412;22;20018;-72
2023/12/23 08:22:12;;;;;;;9.85;2.47;;;9.00;99.90;;;;;;6301480;22;20084;-73
2023/12/23 08:24:38;;;;;;;19.98;4.18;;;9.00;99.90;;;;;;6302066;22;20015;-73
2023/12/23 08:27:04;;;;;;;10.60;2.85;;;9.00;99.90;;;;;;6302276;22;20019;-73
2023/12/23 08:29:30;;;;;;;11.30;3.05;;;9.10;99.90;;;;;;6302037;22;20018;-73
2023/12/23 08:31:55;;;;;;;20.10;3.45;;;9.00;99.90;;;;;;6302043;22;20312;-74
2023/12/23 08:34:21;;;;;;;16.98;3.28;;;9.00;99.90;;;;;;6302156;22;20037;-74
2023/12/23 08:36:47;;;;;;;18.52;3.40;;;9.00;99.90;;;;;;6300202;22;20019;-74
2023/12/23 08:39:12;;;;;;;11.75;3.10;;;9.10;99.90;;;;;;6301912;22;20046;-74
2023/12/23 08:41:38;;;;;;;24.13;5.20;;;9.10;99.90;;;;;;6299352;22;20023;-75
2023/12/23 08:44:04;;;;;;;14.15;3.10;;;9.00;99.90;;;;;;6301304;22;20019;-73
2023/12/23 08:46:30;;;;;;;17.50;3.00;;;9.10;99.90;;;;;;6299183;22;20060;-75
2023/12/23 08:48:56;;;;;;;15.70;2.97;;;9.10;99.90;;;;;;6299391;22;20022;-74
2023/12/23 08:51:22;;;;;;;14.43;2.80;;;9.10;99.90;;;;;;6299903;22;20419;-73
2023/12/23 08:53:48;;;;;;;24.65;3.10;;;9.10;99.90;;;;;;6301474;22;20077;-75
2023/12/23 08:56:13;;;;;;;15.10;3.72;;;9.10;99.90;;;;;;6276171;22;20018;-74
2023/12/23 08:58:39;;;;;;;5.00;1.45;;;9.00;99.90;;;;;;6304090;22;20428;-75
2023/12/23 09:01:05;;;;;;;3.40;1.50;;;8.80;99.90;;;;;;6304205;22;20011;-74
2023/12/23 09:03:31;;;;;;;1.13;1.00;;;8.60;99.90;;;;;;6302193;22;20022;-74
2023/12/23 09:05:58;;;;;;;0.95;0.90;;;8.40;99.90;;;;;;6302300;22;20015;-74
2023/12/23 09:08:24;;;;;;;2.92;0.98;;;8.30;99.90;;;;;;6303893;22;20511;-75
2023/12/23 09:10:50;;;;;;;2.38;1.25;;;8.20;99.90;;;;;;6301918;22;20072;-73
2023/12/23 09:13:16;;;;;;;1.33;1.17;;;8.20;99.90;;;;;;6304158;22;20027;-73
2023/12/23 09:15:41;;;;;;;2.63;2.05;;;8.10;99.90;;;;;;6302245;22;20054;-73
2023/12/23 09:18:07;;;;;;;3.00;1.20;;;8.10;99.90;;;;;;6302222;22;20046;-72
2023/12/23 09:20:33;;;;;;;4.65;1.60;;;8.10;99.90;;;;;;6303689;22;20065;-71
2023/12/23 09:22:59;;;;;;;10.45;2.42;;;8.10;99.90;;;;;;6303861;22;20027;-72
2023/12/23 09:25:25;;;;;;;9.15;2.35;;;8.30;99.90;;;;;;6303831;22;20035;-73
2023/12/23 09:27:50;;;;;;;4.72;1.98;;;8.30;99.90;;;;;;6301982;22;20014;-73
2023/12/23 09:30:16;;;;;;;5.57;1.77;;;8.30;99.90;;;;;;6302129;22;20181;-73
2023/12/23 09:32:44;;;;;;;6.93;1.77;;;8.20;99.90;;;;;;6304595;22;20030;-73
2023/12/23 09:35:09;;;;;;;3.20;1.50;;;8.20;99.90;;;;;;6304002;22;20017;-73
2023/12/23 09:37:36;;;;;;;5.82;1.70;;;8.30;99.90;;;;;;6304084;22;20043;-72
2023/12/23 09:40:02;;;;;;;4.82;1.77;;;8.20;99.90;;;;;;6301664;22;20026;-72
2023/12/23 09:42:28;;;;;;;6.35;1.50;;;8.20;99.90;;;;;;6303930;22;20011;-72
2023/12/23 09:44:54;;;;;;;7.47;1.40;;;8.20;99.90;;;;;;6301836;22;20019;-72
2023/12/23 09:47:20;;;;;;;3.30;1.42;;;8.10;99.90;;;;;;6304530;22;20015;-72
2023/12/23 09:49:46;;;;;;;7.75;2.85;;;8.20;99.90;;;;;;6302305;22;20083;-72
2023/12/23 09:52:13;;;;;;;7.50;2.10;;;8.20;99.90;;;;;;6301549;22;20045;-72
2023/12/23 09:54:41;;;;;;;8.73;2.10;;;8.20;99.90;;;;;;6301520;22;20015;-74
2023/12/23 09:57:10;;;;;;;11.85;2.38;;;8.20;99.90;;;;;;6303295;22;20043;-73
2023/12/23 09:59:36;;;;;;;16.70;2.80;;;8.20;99.90;;;;;;6303712;22;20073;-73
2023/12/23 10:02:02;;;;;;;8.52;2.45;;;8.30;99.90;;;;;;6304134;22;20014;-73
2023/12/23 10:04:28;;;;;;;11.95;2.42;;;8.30;99.90;;;;;;6301670;22;20451;-74
2023/12/23 10:06:55;;;;;;;16.63;2.60;;;8.40;99.90;;;;;;6304015;22;20050;-74
2023/12/23 10:09:21;;;;;;;16.05;2.92;;;8.40;99.90;;;;;;6301663;22;20043;-72
2023/12/23 10:11:47;;;;;;;14.93;3.78;;;8.40;99.90;;;;;;6303541;22;20018;-73
2023/12/23 10:14:13;;;;;;;17.80;3.28;;;8.40;99.90;;;;;;6303634;22;20019;-75
2023/12/23 10:16:41;;;;;;;11.05;2.85;;;8.50;99.90;;;;;;6301536;22;20355;-75
2023/12/23 10:19:08;;;;;;;12.52;2.38;;;8.50;99.90;;;;;;6301439;22;20078;-75
2023/12/23 10:21:35;;;;;;;10.07;2.80;;;8.50;99.90;;;;;;6301474;22;20019;-75
2023/12/23 10:24:01;;;;;;;13.15;2.47;;;8.50;99.90;;;;;;6298867;22;20387;-77
2023/12/23 10:26:27;;;;;;;11.27;2.28;;;8.50;99.90;;;;;;6302808;22;20008;-75
2023/12/23 10:28:57;;;;;;;6.43;2.03;;;8.50;99.90;;;;;;6301243;22;20090;-76
2023/12/23 10:31:27;;;;;;;12.70;2.38;;;8.50;99.90;;;;;;6301129;22;20073;-77
2023/12/23 10:33:57;;;;;;;8.77;3.38;;;8.40;99.90;;;;;;6302965;22;20094;-76
2023/12/23 10:36:24;;;;;;;13.05;2.83;;;8.40;99.90;;;;;;6301075;22;20121;-78
2023/12/23 10:38:53;;;;;;;16.55;2.80;;;8.40;99.90;;;;;;6302838;22;20011;-79
2023/12/23 10:41:45;;;;;;;13.90;3.00;;;8.50;99.90;;;;;;6300676;22;20023;-78
2023/12/23 10:44:12;;;;;;;18.48;3.65;;;8.60;99.90;;;;;;6300608;22;20019;-78
2023/12/23 10:46:39;;;;;;;20.42;3.75;;;8.70;99.90;;;;;;6300923;22;20037;-78
2023/12/23 10:49:07;;;;;;;21.20;3.28;;;8.70;99.90;;;;;;6299197;22;20335;-76
2023/12/23 10:51:33;;;;;;;17.90;3.95;;;8.80;99.90;;;;;;6301115;22;20346;-76
2023/12/23 10:54:00;;;;;;;21.45;3.70;;;8.90;99.90;;;;;;6299970;22;20518;-77
2023/12/23 10:56:27;;;;;;;14.30;3.10;;;8.90;99.90;;;;;;6300226;22;20026;-79
2023/12/23 10:58:54;;;;;;;17.15;3.00;;;9.00;99.90;;;;;;6300666;22;20351;-79
2023/12/23 11:01:22;;;;;;;23.50;4.82;;;9.00;99.90;;;;;;6302585;22;20023;-79
2023/12/23 11:03:51;;;;;;;22.48;4.55;;;9.10;99.90;;;;;;6300544;22;20019;-78
2023/12/23 11:06:19;;;;;;;20.65;3.63;;;9.10;99.90;;;;;;6302709;22;20051;-79
2023/12/23 11:08:46;;;;;;;18.80;3.22;;;9.20;99.90;;;;;;6303695;22;20081;-80
2023/12/23 11:11:12;;;;;;;13.93;3.15;;;9.20;99.90;;;;;;6303818;22;20077;-79
2023/12/23 11:13:38;;;;;;;17.52;3.30;;;9.20;99.90;;;;;;6303304;22;20354;-80
2023/12/23 11:16:10;;;;;;;11.85;4.25;;;9.20;99.90;;;;;;6302492;22;20090;-80
2023/12/23 11:18:37;;;;;;;11.45;2.67;;;9.20;99.90;;;;;;6302989;22;20393;-79
2023/12/23 11:21:13;;;;;;;22.90;3.45;;;9.30;99.90;;;;;;6302319;22;20026;-79
2023/12/23 11:23:39;;;;;;;18.80;3.13;;;9.30;99.90;;;;;;6302787;22;20087;-78
2023/12/23 11:26:24;;;;;;;17.83;2.38;;;9.30;99.90;;;;;;6303586;22;20104;-80
2023/12/23 11:28:50;;;;;;;20.38;4.15;;;9.30;99.90;;;;;;6302969;22;20022;-79
2023/12/23 11:31:16;;;;;;;11.27;2.53;;;9.40;99.90;;;;;;6302986;22;20439;-79
2023/12/23 11:33:41;;;;;;;15.00;2.80;;;9.40;99.90;;;;;;6302595;22;20022;-80
2023/12/23 11:36:07;;;;;;;14.77;3.58;;;9.40;99.90;;;;;;6300028;22;20315;-80
2023/12/23 11:38:50;;;;;;;13.77;3.45;;;9.40;99.90;;;;;;6299689;22;20062;-78
2023/12/23 11:41:17;;;;;;;13.57;4.30;;;9.40;99.90;;;;;;6301238;22;20026;-79
2023/12/23 11:43:44;;;;;;;13.88;2.78;;;9.50;99.90;;;;;;6299686;22;20098;-79
2023/12/23 11:46:09;;;;;;;16.92;2.92;;;9.50;99.90;;;;;;6299855;22;20015;-79
2023/12/23 11:48:35;;;;;;;18.52;4.45;;;9.40;99.90;;;;;;6301333;22;20011;-79
2023/12/23 11:51:02;;;;;;;16.58;3.45;;;9.50;99.90;;;;;;6301214;22;20309;-79
2023/12/23 11:53:29;;;;;;;20.00;3.28;;;9.50;99.90;;;;;;6299521;22;20061;-79
2023/12/23 11:55:55;;;;;;;18.50;5.20;;;9.50;99.90;;;;;;6299839;22;20026;-79
2023/12/23 11:58:22;;;;;;;19.30;4.25;;;9.50;99.90;;;;;;6299987;22;20011;-79
2023/12/23 12:00:51;;;;;;;15.93;3.05;;;9.50;99.90;;;;;;6299859;22;20068;-79
2023/12/23 12:03:17;;;;;;;16.17;3.63;;;9.50;99.90;;;;;;6299378;22;20030;-77
2023/12/23 12:05:43;;;;;;;19.08;3.28;;;9.60;99.90;;;;;;6301268;22;20011;-80
2023/12/23 12:08:09;;;;;;;19.40;2.95;;;9.60;99.90;;;;;;6299349;22;20019;-80
2023/12/23 12:10:35;;;;;;;20.23;3.40;;;9.60;99.90;;;;;;6299323;22;20019;-80
2023/12/23 12:13:01;;;;;;;19.70;3.08;;;9.60;99.90;;;;;;6301117;22;20058;-80
2023/12/23 12:15:27;;;;;;;19.55;3.25;;;9.60;99.90;;;;;;6301209;22;20018;-79
2023/12/23 12:17:53;;;;;;;15.18;3.72;;;9.70;99.90;;;;;;6301021;22;20075;-80
2023/12/23 12:20:19;;;;;;;18.40;3.22;;;9.70;99.90;;;;;;6300876;22;20044;-80
2023/12/23 12:22:45;;;;;;;19.92;2.88;;;9.70;99.90;;;;;;6301109;22;20015;-80
2023/12/23 12:25:11;;;;;;;16.15;2.92;;;9.80;99.90;;;;;;6301264;22;20336;-81
2023/12/23 12:27:38;;;;;;;17.23;3.83;;;9.80;99.90;;;;;;6298850;22;20033;-80
2023/12/23 12:30:11;;;;;;;12.02;3.08;;;9.80;99.90;;;;;;6301269;22;20039;-81
2023/12/23 12:32:44;;;;;;;17.33;3.88;;;9.80;99.90;;;;;;6301512;22;20018;-82
2023/12/23 12:35:11;;;;;;;23.73;3.47;;;9.80;99.90;;;;;;6298616;22;20086;-81
2023/12/23 12:37:38;;;;;;;14.40;3.35;;;9.80;99.90;;;;;;6300877;22;20086;-81
2023/12/23 12:40:05;;;;;;;15.25;3.08;;;9.80;99.90;;;;;;6298910;22;20397;-76
2023/12/23 12:42:35;;;;;;;12.23;3.72;;;9.80;99.90;;;;;;6300638;22;20027;-79
2023/12/23 12:45:02;;;;;;;18.38;3.35;;;9.80;99.90;;;;;;6301058;22;20019;-81